Richard Lloyd Jones Jr Airport
KRVS : now visible

Airfield :











YOU CAN JOIN US ON...

 
LOGIN :

Register | Disclaimer

   EN    FR    IT 

 









Legend :    VFR   Marginal VFR   IFR   Intensive IFR   Very Intensive IFR
Visi :
Ceiling :
>= 8 km
>= 3000ft
5 to 8 km
1000 to 3000 ft
1500m to 5 km
500 to 1000 ft
800 to 1500m
200 to 500 ft
< 800m
< 200 ft
Symbols :   Thunderstorms  Fog  Heavy snow  Heavy precipitations  Wind > 20 kt






- Airport Elevation : 638 ft


KRVS - Richard Lloyd Jones Jr

CURRENT METAR :
  • 150653Z AUTO 04006KT 7SM CLR 01/M02 A2990 RMK AO2 SLP132 T00111017

EXPIRED METARs :
  • 150553Z AUTO 03005KT 7SM CLR 01/M02 A2993 RMK AO2 SLP143 T00061017 10039 20006 401000006 56006
  • 150453Z AUTO 05005KT 8SM CLR 01/M02 A2993 RMK AO2 SLP144 T00111017

TAF KRVS
Valid from the 15 at 06:00 until the 16 at 06:00 UTC


150533Z 1506/1606 05007KT 5SM BR SCT100
FM151200 05008KT 5SM BR OVC015
FM151800 36009KT 4SM BR OVC007



MET'MAP, your aeronautical weather chart ! - Copyright ORBIFLY December 2007 - Disclaimer

ORBIFLY MET'MAP TEAM :

Programming & Development : Alexandra Zaïnal
Concept & original design : Baudouin d'Aumeries
Assistance for programming : Marc-Olivier Méhu
Technical & hardware support : Manuel Goepfert

Contact : metmap@orbifly.com




SOURCES & CREDITS :

   NOAA       Earth
Advisory